Time;durP1;ratioP1;P1;durP2;ratioP2;P2;SDS_P1;SDS_P2;PMS_P1;PMS_P2;Temp;Humidity;BMP_temperature;BMP_pressure;BME280_temperature;BME280_humidity;BME280_pressure;Samples;Min_cycle;Max_cycle;Signal;HPM_P1;HPM_P2
2020/12/14 00:00:50;;;;;;;;;;;8.50;75.80;;;;;;5074552;28;20031;-90
2020/12/14 00:03:16;;;;;;;;;;;8.50;75.80;;;;;;5094307;28;19912;-90
2020/12/14 00:05:42;;;;;;;;;;;8.60;75.90;;;;;;5094817;28;19913;-90
2020/12/14 00:08:08;;;;;;;;;;;8.60;75.80;;;;;;5096070;28;19920;-91
2020/12/14 00:10:34;;;;;;;;;;;8.60;75.80;;;;;;5094714;28;20322;-91
2020/12/14 00:13:02;;;;;;;;;;;8.60;75.80;;;;;;5094523;28;19942;-90
2020/12/14 00:15:28;;;;;;;;;;;8.60;75.80;;;;;;5077167;28;19914;-89
2020/12/14 00:17:54;;;;;;;;;;;8.50;75.70;;;;;;5094422;28;20002;-89
2020/12/14 00:20:21;;;;;;;;;;;8.60;75.70;;;;;;5094422;28;19923;-91
2020/12/14 00:22:47;;;;;;;;;;;8.60;75.70;;;;;;5094750;28;20369;-90
2020/12/14 00:25:22;;;;;;;;;;;8.60;75.70;;;;;;5101867;22;19949;-90
2020/12/14 00:30:51;;;;;;;;;;;8.60;75.70;;;;;;5135972;27;20342;-90
2020/12/14 00:33:22;;;;;;;;;;;8.60;75.60;;;;;;5117358;27;20017;-85
2020/12/14 00:36:06;;;;;;;;;;;8.60;75.60;;;;;;5100376;27;20028;-84
2020/12/14 00:39:04;;;;;;;;;;;8.60;75.60;;;;;;5117315;27;19907;-84
2020/12/14 00:41:36;;;;;;;;;;;8.60;75.70;;;;;;5117680;27;19943;-84
2020/12/14 00:44:16;;;;;;;;;;;8.60;75.60;;;;;;5116910;27;20329;-84
2020/12/14 00:47:18;;;;;;;;;;;8.60;75.70;;;;;;5117426;27;20451;-84
2020/12/14 00:49:52;;;;;;;;;;;8.60;75.70;;;;;;5116003;27;20046;-87
2020/12/14 00:52:32;;;;;;;;;;;8.60;75.70;;;;;;5116714;27;19914;-87
2020/12/14 00:54:58;;;;;;;;;;;8.70;75.70;;;;;;5096962;27;19967;-87
2020/12/14 00:57:27;;;;;;;;;;;8.70;75.70;;;;;;5095957;28;20355;-87
2020/12/14 00:59:52;;;;;;;;;;;8.70;75.70;;;;;;5095597;28;19908;-87
2020/12/14 01:02:22;;;;;;;;;;;8.70;75.80;;;;;;5095745;28;19916;-87
2020/12/14 01:04:51;;;;;;;;;;;8.70;75.70;;;;;;5095071;28;19911;-86
2020/12/14 01:07:22;;;;;;;;;;;8.70;75.80;;;;;;5095915;28;20282;-87
2020/12/14 01:09:48;;;;;;;;;;;8.70;75.70;;;;;;5079108;28;19970;-87
2020/12/14 01:12:13;;;;;;;;;;;8.70;75.80;;;;;;5095382;28;20324;-86
2020/12/14 01:14:46;;;;;;;;;;;8.70;75.70;;;;;;5094999;28;20329;-87
2020/12/14 01:17:12;;;;;;;;;;;8.70;75.80;;;;;;5078393;28;19911;-87
2020/12/14 01:19:41;;;;;;;;;;;8.70;75.80;;;;;;5095135;28;19935;-87
2020/12/14 01:22:12;;;;;;;;;;;8.70;75.80;;;;;;5078273;28;19934;-87
2020/12/14 01:24:37;;;;;;;;;;;8.70;75.80;;;;;;5078706;28;19947;-87
2020/12/14 01:27:03;;;;;;;;;;;8.70;75.90;;;;;;5094417;28;20004;-87
2020/12/14 01:29:36;;;;;;;;;;;8.70;75.90;;;;;;5077403;28;19924;-87
2020/12/14 01:32:05;;;;;;;;;;;8.80;76.00;;;;;;5086198;27;19964;-90
2020/12/14 01:34:37;;;;;;;;;;;8.80;76.10;;;;;;5116714;27;19908;-91
2020/12/14 01:37:15;;;;;;;;;;;8.80;76.10;;;;;;5100013;27;19915;-90
2020/12/14 01:39:44;;;;;;;;;;;8.80;76.10;;;;;;5117021;27;20117;-91
2020/12/14 01:42:22;;;;;;;;;;;8.80;76.10;;;;;;5102514;28;19919;-90
2020/12/14 01:44:54;;;;;;;;;;;8.80;76.10;;;;;;5096246;28;19916;-91
2020/12/14 01:47:30;;;;;;;;;;;8.80;76.20;;;;;;5096290;28;19911;-92
2020/12/14 01:49:57;;;;;;;;;;;8.80;76.30;;;;;;5096368;28;19915;-90
2020/12/14 01:52:32;;;;;;;;;;;8.90;76.40;;;;;;5096214;28;19915;-92
2020/12/14 01:55:00;;;;;;;;;;;8.80;76.40;;;;;;5096418;28;19930;-92
2020/12/14 01:57:28;;;;;;;;;;;8.90;77.00;;;;;;5096064;28;19907;-90
2020/12/14 01:59:55;;;;;;;;;;;8.90;76.60;;;;;;5096315;28;19930;-91
2020/12/14 02:02:29;;;;;;;;;;;8.90;76.60;;;;;;5096616;28;19971;-90
2020/12/14 02:04:57;;;;;;;;;;;8.90;76.60;;;;;;5079208;28;19919;-90
2020/12/14 02:07:24;;;;;;;;;;;8.90;76.60;;;;;;5079223;28;19915;-91
2020/12/14 02:09:53;;;;;;;;;;;8.90;76.70;;;;;;5080074;28;20013;-92
2020/12/14 02:12:23;;;;;;;;;;;9.00;76.70;;;;;;5102945;28;19994;-91
2020/12/14 02:14:53;;;;;;;;;;;9.00;76.70;;;;;;5116901;28;19907;-90
2020/12/14 02:17:19;;;;;;;;;;;9.00;76.80;;;;;;5116816;28;19908;-91
2020/12/14 02:19:46;;;;;;;;;;;9.00;76.90;;;;;;5116649;28;20360;-92
2020/12/14 02:22:17;;;;;;;;;;;9.00;76.90;;;;;;5116551;28;19912;-92
2020/12/14 02:24:56;;;;;;;;;;;;;;;;;;;;;
2020/12/14 02:27:26;;;;;;;;;;;9.10;77.10;;;;;;5134131;28;19915;-91
2020/12/14 02:30:10;;;;;;;;;;;9.10;77.20;;;;;;5116045;28;19956;-89
2020/12/14 02:32:35;;;;;;;;;;;9.10;77.20;;;;;;5116501;28;19907;-90
2020/12/14 02:35:02;;;;;;;;;;;9.10;77.20;;;;;;5099192;28;19992;-90
2020/12/14 02:37:32;;;;;;;;;;;9.10;77.40;;;;;;5098441;28;19916;-92
2020/12/14 02:39:58;;;;;;;;;;;9.10;77.40;;;;;;5118667;27;19908;-91
2020/12/14 02:42:39;;;;;;;;;;;9.10;77.50;;;;;;5119999;27;19976;-90
2020/12/14 02:45:08;;;;;;;;;;;9.20;77.50;;;;;;5120100;27;19915;-90
2020/12/14 02:47:38;;;;;;;;;;;9.20;77.60;;;;;;5120036;27;19952;-91
2020/12/14 02:50:06;;;;;;;;;;;9.20;77.50;;;;;;5103467;27;19965;-91
2020/12/14 02:52:42;;;;;;;;;;;;;;;;;;;;;
2020/12/14 02:55:15;;;;;;;;;;;9.20;77.70;;;;;;5125521;27;19912;-91
2020/12/14 02:57:43;;;;;;;;;;;9.30;77.70;;;;;;5099499;28;19912;-91
2020/12/14 03:00:09;;;;;;;;;;;9.30;77.70;;;;;;5098917;28;19908;-91
2020/12/14 03:02:35;;;;;;;;;;;9.30;77.80;;;;;;5099328;28;19912;-91
2020/12/14 03:05:08;;;;;;;;;;;9.30;77.80;;;;;;5082294;28;19916;-89
2020/12/14 03:10:41;;;;;;;;;;;9.30;77.80;;;;;;5102429;28;20010;-91
2020/12/14 03:13:10;;;;;;;;;;;9.30;77.80;;;;;;5083085;28;20384;-90
2020/12/14 03:15:38;;;;;;;;;;;9.30;77.80;;;;;;5098984;28;20364;-90
2020/12/14 03:18:18;;;;;;;;;;;9.40;77.80;;;;;;5098905;28;19907;-90
2020/12/14 03:21:06;;;;;;;;;;;9.40;77.80;;;;;;5081977;28;19916;-90
2020/12/14 03:23:36;;;;;;;;;;;9.40;77.80;;;;;;5098326;28;19920;-91
2020/12/14 03:26:07;;;;;;;;;;;9.40;77.80;;;;;;5085398;28;19921;-87
2020/12/14 03:28:33;;;;;;;;;;;9.40;77.90;;;;;;5073607;28;19958;-87
2020/12/14 03:30:58;;;;;;;;;;;9.50;78.00;;;;;;5056260;28;19999;-87
2020/12/14 03:33:27;;;;;;;;;;;9.50;77.90;;;;;;5073623;28;19916;-87
2020/12/14 03:36:00;;;;;;;;;;;9.50;77.90;;;;;;5073391;28;20369;-87
2020/12/14 03:38:57;;;;;;;;;;;9.50;77.90;;;;;;5073289;28;19915;-87
2020/12/14 03:41:30;;;;;;;;;;;9.50;77.90;;;;;;5071081;28;19912;-87
2020/12/14 03:43:59;;;;;;;;;;;9.50;78.60;;;;;;5072772;28;19916;-87
2020/12/14 03:46:28;;;;;;;;;;;9.50;78.00;;;;;;5056360;28;19999;-87
2020/12/14 03:55:50;;;;;;;;;;;;;;;;;;;;;
2020/12/14 03:58:34;;;;;;;;;;;9.60;78.10;;;;;;5073954;28;19923;-88
2020/12/14 04:01:06;;;;;;;;;;;9.60;78.80;;;;;;5072525;28;19909;-87
2020/12/14 04:03:38;;;;;;;;;;;9.60;78.20;;;;;;5054972;28;19986;-87
2020/12/14 04:06:07;;;;;;;;;;;9.60;78.40;;;;;;5054948;28;20232;-86
2020/12/14 04:08:35;;;;;;;;;;;9.60;78.50;;;;;;5038581;28;19916;-87
2020/12/14 04:11:03;;;;;;;;;;;9.60;78.50;;;;;;5054416;28;19912;-87
2020/12/14 04:13:51;;;;;;;;;;;9.60;78.50;;;;;;5060886;28;20015;-87
2020/12/14 04:16:19;;;;;;;;;;;9.60;78.50;;;;;;5074710;28;19912;-87
2020/12/14 04:18:54;;;;;;;;;;;9.60;78.50;;;;;;5058025;28;20019;-87
2020/12/14 04:21:19;;;;;;;;;;;9.60;78.50;;;;;;5057759;28;19927;-87
2020/12/14 04:23:45;;;;;;;;;;;9.70;78.50;;;;;;5058393;28;19916;-87
2020/12/14 04:26:13;;;;;;;;;;;9.70;78.50;;;;;;5057676;28;19986;-87
2020/12/14 04:29:01;;;;;;;;;;;9.70;78.50;;;;;;5074677;28;19919;-87
2020/12/14 04:31:27;;;;;;;;;;;9.70;78.60;;;;;;5074603;28;19908;-87
2020/12/14 04:34:21;;;;;;;;;;;9.70;78.50;;;;;;5071810;28;20273;-87
2020/12/14 04:36:48;;;;;;;;;;;9.70;78.50;;;;;;5088446;28;19913;-87
2020/12/14 04:39:20;;;;;;;;;;;9.70;78.60;;;;;;5055349;28;20381;-87
2020/12/14 04:41:48;;;;;;;;;;;9.70;78.50;;;;;;5071931;28;19909;-87
2020/12/14 04:44:16;;;;;;;;;;;9.70;78.50;;;;;;5055023;28;19925;-87
2020/12/14 04:46:43;;;;;;;;;;;9.70;78.50;;;;;;5061655;28;19928;-87
2020/12/14 04:49:09;;;;;;;;;;;9.70;78.50;;;;;;5088335;28;19923;-87
2020/12/14 04:51:46;;;;;;;;;;;;;;;;;;;;;
2020/12/14 04:54:32;;;;;;;;;;;9.80;78.60;;;;;;5073725;28;19913;-85
2020/12/14 04:57:03;;;;;;;;;;;9.80;78.60;;;;;;5089824;28;19951;-85
2020/12/14 04:59:35;;;;;;;;;;;9.80;78.60;;;;;;5092790;28;20335;-85
2020/12/14 05:02:33;;;;;;;;;;;9.80;78.60;;;;;;5082304;28;19978;-84
2020/12/14 05:04:59;;;;;;;;;;;9.80;78.70;;;;;;5072427;28;19950;-84
2020/12/14 05:08:13;;;;;;;;;;;9.80;78.90;;;;;;5073139;28;19916;-84
2020/12/14 05:10:32;;;;;;;;;;;9.70;79.00;;;;;;5088826;28;19916;-85
2020/12/14 05:13:11;;;;;;;;;;;9.80;79.00;;;;;;5075567;28;19922;-84
2020/12/14 05:15:45;;;;;;;;;;;9.80;79.00;;;;;;5092850;28;19999;-84
2020/12/14 05:18:23;;;;;;;;;;;9.70;79.00;;;;;;5071944;28;20003;-84
2020/12/14 05:21:00;;;;;;;;;;;9.80;79.00;;;;;;5071963;28;19956;-84
2020/12/14 05:23:35;;;;;;;;;;;9.80;79.00;;;;;;5072471;28;19908;-84
2020/12/14 05:26:08;;;;;;;;;;;9.80;79.00;;;;;;5080017;28;19985;-84
2020/12/14 05:28:36;;;;;;;;;;;9.80;79.00;;;;;;5092557;28;19908;-84
2020/12/14 05:31:02;;;;;;;;;;;9.80;79.10;;;;;;5090981;28;19947;-85
2020/12/14 05:33:38;;;;;;;;;;;9.80;79.00;;;;;;5079260;28;20273;-84
2020/12/14 05:36:15;;;;;;;;;;;9.80;79.00;;;;;;5071992;28;20011;-84
2020/12/14 05:38:43;;;;;;;;;;;9.80;79.00;;;;;;5072059;28;20031;-84
2020/12/14 05:41:49;;;;;;;;;;;9.80;79.10;;;;;;5082756;28;19908;-85
2020/12/14 05:44:51;;;;;;;;;;;9.80;79.20;;;;;;5031374;28;19917;-85
2020/12/14 05:47:54;;;;;;;;;;;9.80;79.10;;;;;;5024326;28;19913;-84
2020/12/14 05:50:42;;;;;;;;;;;9.80;79.10;;;;;;5043424;28;19931;-84
2020/12/14 05:53:24;;;;;;;;;;;9.80;79.70;;;;;;5051667;28;20006;-85
2020/12/14 05:55:53;;;;;;;;;;;9.80;79.10;;;;;;5033225;28;19944;-85
2020/12/14 06:01:46;;;;;;;;;;;9.80;79.30;;;;;;5050806;28;20365;-84
2020/12/14 06:04:12;;;;;;;;;;;9.80;79.20;;;;;;5052020;28;19944;-85
2020/12/14 06:06:41;;;;;;;;;;;9.80;79.20;;;;;;5032460;28;19912;-86
2020/12/14 06:09:07;;;;;;;;;;;9.80;79.20;;;;;;5074500;28;19916;-84
2020/12/14 06:11:36;;;;;;;;;;;9.80;79.20;;;;;;5054092;28;19928;-83
2020/12/14 06:14:02;;;;;;;;;;;9.80;79.30;;;;;;5074594;28;19974;-92
2020/12/14 06:16:29;;;;;;;;;;;9.90;79.40;;;;;;5076556;28;19909;-92
2020/12/14 06:18:56;;;;;;;;;;;9.80;79.60;;;;;;5077505;28;19913;-92
2020/12/14 06:21:39;;;;;;;;;;;9.90;79.90;;;;;;5076512;28;20410;-93
2020/12/14 06:24:06;;;;;;;;;;;9.90;79.70;;;;;;5076345;28;19919;-92
2020/12/14 06:26:35;;;;;;;;;;;9.80;79.80;;;;;;5082871;23;20392;-84
2020/12/14 06:29:01;;;;;;;;;;;9.90;79.80;;;;;;5095190;28;19919;-85
2020/12/14 06:31:39;;;;;;;;;;;9.90;79.80;;;;;;5078104;28;19912;-86
2020/12/14 06:34:25;;;;;;;;;;;9.90;80.30;;;;;;5095623;28;20383;-85
2020/12/14 06:36:50;;;;;;;;;;;9.90;79.90;;;;;;5078934;28;19917;-84
2020/12/14 06:39:24;;;;;;;;;;;9.90;80.30;;;;;;5077901;28;19908;-84
2020/12/14 06:41:49;;;;;;;;;;;9.90;80.40;;;;;;5077453;28;19916;-84
2020/12/14 06:44:15;;;;;;;;;;;9.90;80.40;;;;;;5077398;28;20007;-84
2020/12/14 06:46:40;;;;;;;;;;;9.90;80.40;;;;;;5077129;28;20361;-84
2020/12/14 06:49:09;;;;;;;;;;;9.90;80.50;;;;;;5077045;28;20349;-84
2020/12/14 06:51:49;;;;;;;;;;;9.90;80.70;;;;;;5077645;28;19908;-84
2020/12/14 06:54:35;;;;;;;;;;;9.90;80.70;;;;;;5076491;28;19985;-84
2020/12/14 06:57:01;;;;;;;;;;;9.90;80.70;;;;;;5075875;28;19935;-84
2020/12/14 06:59:31;;;;;;;;;;;9.90;80.90;;;;;;5095012;28;19912;-84
2020/12/14 07:02:00;;;;;;;;;;;9.90;80.90;;;;;;5094045;28;19912;-85
2020/12/14 07:04:46;;;;;;;;;;;9.90;81.10;;;;;;5076222;28;20365;-85
2020/12/14 07:07:14;;;;;;;;;;;9.90;81.20;;;;;;5092913;28;19959;-85
2020/12/14 07:09:40;;;;;;;;;;;10.00;81.50;;;;;;5077034;28;19959;-85
2020/12/14 07:12:08;;;;;;;;;;;9.90;81.80;;;;;;5071131;28;19912;-85
2020/12/14 07:14:35;;;;;;;;;;;9.90;81.80;;;;;;5071726;28;19935;-85
2020/12/14 07:17:08;;;;;;;;;;;10.00;81.80;;;;;;5090959;28;20383;-85
2020/12/14 07:19:34;;;;;;;;;;;10.00;81.70;;;;;;5074252;28;19916;-85
2020/12/14 07:22:00;;;;;;;;;;;10.00;82.10;;;;;;5093387;28;19998;-85
2020/12/14 07:24:32;;;;;;;;;;;10.00;81.90;;;;;;5076416;28;20299;-85
2020/12/14 07:26:57;;;;;;;;;;;10.00;82.00;;;;;;5075645;28;19912;-86
2020/12/14 07:29:23;;;;;;;;;;;10.00;82.10;;;;;;5062899;28;19920;-87
2020/12/14 07:31:49;;;;;;;;;;;10.00;82.20;;;;;;5064996;28;19912;-87
2020/12/14 07:34:15;;;;;;;;;;;10.00;82.30;;;;;;5039667;28;19935;-86
2020/12/14 07:36:47;;;;;;;;;;;10.00;82.40;;;;;;5056637;28;19934;-86
2020/12/14 07:39:12;;;;;;;;;;;10.00;82.50;;;;;;5057562;28;20398;-85
2020/12/14 07:41:44;;;;;;;;;;;10.10;82.60;;;;;;5071805;28;19962;-85
2020/12/14 07:44:10;;;;;;;;;;;10.10;82.50;;;;;;5054912;28;19960;-86
2020/12/14 07:46:35;;;;;;;;;;;10.10;82.60;;;;;;5039722;28;20381;-86
2020/12/14 07:49:01;;;;;;;;;;;10.10;82.60;;;;;;5056192;28;19919;-85
2020/12/14 07:51:27;;;;;;;;;;;10.10;82.60;;;;;;5056017;28;19909;-85
2020/12/14 07:53:53;;;;;;;;;;;10.10;82.50;;;;;;5055903;28;19993;-85
2020/12/14 07:56:19;;;;;;;;;;;10.10;82.50;;;;;;5055942;28;19953;-85
2020/12/14 07:58:45;;;;;;;;;;;10.10;82.80;;;;;;5051870;28;19913;-85
2020/12/14 08:01:18;;;;;;;;;;;10.20;82.70;;;;;;5044490;28;20420;-85
2020/12/14 08:03:44;;;;;;;;;;;10.20;82.70;;;;;;5082129;28;20015;-84
2020/12/14 08:06:17;;;;;;;;;;;10.20;82.60;;;;;;5052039;28;19944;-83
2020/12/14 08:08:46;;;;;;;;;;;10.20;82.80;;;;;;5053770;28;19924;-84
2020/12/14 08:11:11;;;;;;;;;;;10.30;83.10;;;;;;5049917;28;19998;-84
2020/12/14 08:13:38;;;;;;;;;;;10.30;83.40;;;;;;5036296;28;20000;-84
2020/12/14 08:16:04;;;;;;;;;;;10.30;83.30;;;;;;5055154;28;20960;-84
2020/12/14 08:18:30;;;;;;;;;;;10.30;83.20;;;;;;5055412;28;19913;-87
2020/12/14 08:20:56;;;;;;;;;;;10.30;83.80;;;;;;5062413;28;19912;-86
2020/12/14 08:23:23;;;;;;;;;;;10.30;83.90;;;;;;5074875;28;20377;-88
2020/12/14 08:25:49;;;;;;;;;;;10.40;83.90;;;;;;5074623;28;19928;-87
2020/12/14 08:28:15;;;;;;;;;;;10.40;83.80;;;;;;5058922;28;20049;-87
2020/12/14 08:30:41;;;;;;;;;;;10.40;84.20;;;;;;5075522;28;20383;-87
2020/12/14 08:33:12;;;;;;;;;;;10.40;84.10;;;;;;5075144;28;19919;-87
2020/12/14 08:35:39;;;;;;;;;;;10.40;83.90;;;;;;5068046;28;20269;-87
2020/12/14 08:38:06;;;;;;;;;;;10.40;84.70;;;;;;5018595;28;19913;-87
2020/12/14 08:40:31;;;;;;;;;;;10.50;84.20;;;;;;5035628;28;19909;-88
2020/12/14 08:43:10;;;;;;;;;;;10.50;84.50;;;;;;5036030;28;19959;-87
2020/12/14 08:45:38;;;;;;;;;;;10.50;84.20;;;;;;5035227;28;19913;-87
2020/12/14 08:48:04;;;;;;;;;;;10.50;84.10;;;;;;5060509;28;19917;-87
2020/12/14 08:50:31;;;;;;;;;;;10.50;84.20;;;;;;5039926;28;19939;-87
2020/12/14 08:53:00;;;;;;;;;;;10.60;84.20;;;;;;5019087;28;20346;-87
2020/12/14 08:55:39;;;;;;;;;;;10.60;84.30;;;;;;5034852;28;19920;-87
2020/12/14 08:58:05;;;;;;;;;;;10.60;84.50;;;;;;5018790;28;19913;-87
2020/12/14 09:00:31;;;;;;;;;;;10.60;84.70;;;;;;5018337;28;19924;-87
2020/12/14 09:03:03;;;;;;;;;;;10.60;84.70;;;;;;5035267;28;20007;-87
2020/12/14 09:05:32;;;;;;;;;;;10.60;85.00;;;;;;5044355;28;19923;-84
2020/12/14 09:08:24;;;;;;;;;;;10.70;84.80;;;;;;5055014;28;19909;-85
2020/12/14 09:10:56;;;;;;;;;;;10.70;84.90;;;;;;5064318;28;19912;-85
2020/12/14 09:13:22;;;;;;;;;;;10.70;84.70;;;;;;5072454;28;19988;-84
2020/12/14 09:15:54;;;;;;;;;;;10.80;84.80;;;;;;5052614;28;21439;-85
2020/12/14 09:18:19;;;;;;;;;;;10.70;84.90;;;;;;5053170;28;19913;-85
2020/12/14 09:20:45;;;;;;;;;;;10.80;84.90;;;;;;5072391;28;19913;-85
2020/12/14 09:23:20;;;;;;;;;;;10.80;85.00;;;;;;5054312;28;19919;-85
2020/12/14 09:25:46;;;;;;;;;;;10.80;84.80;;;;;;5051858;28;20011;-86
2020/12/14 09:28:11;;;;;;;;;;;10.90;84.70;;;;;;5089191;28;19975;-85
2020/12/14 09:30:37;;;;;;;;;;;10.90;84.60;;;;;;5072614;28;19944;-85
2020/12/14 09:33:02;;;;;;;;;;;10.90;84.60;;;;;;5055987;28;20031;-85
2020/12/14 09:35:28;;;;;;;;;;;11.00;84.90;;;;;;5076396;28;19916;-85
2020/12/14 09:37:53;;;;;;;;;;;11.00;85.20;;;;;;5075515;28;20257;-85
2020/12/14 09:40:19;;;;;;;;;;;11.00;85.20;;;;;;5075488;28;19912;-85
2020/12/14 09:42:44;;;;;;;;;;;11.00;85.30;;;;;;5075620;28;20011;-85
2020/12/14 09:45:10;;;;;;;;;;;11.00;85.30;;;;;;5058519;28;19916;-85
2020/12/14 09:47:35;;;;;;;;;;;11.10;85.50;;;;;;5075870;28;19912;-85
2020/12/14 09:50:01;;;;;;;;;;;11.00;85.20;;;;;;5074947;28;19931;-85
2020/12/14 09:52:27;;;;;;;;;;;11.00;85.50;;;;;;5075170;28;20310;-84
2020/12/14 09:54:52;;;;;;;;;;;11.10;85.60;;;;;;5058869;28;19912;-85
2020/12/14 09:57:17;;;;;;;;;;;11.10;85.50;;;;;;5058778;28;19926;-85
2020/12/14 09:59:43;;;;;;;;;;;11.10;85.60;;;;;;5093303;28;19958;-85
2020/12/14 10:02:08;;;;;;;;;;;11.20;85.50;;;;;;5093357;28;20675;-85
2020/12/14 10:04:35;;;;;;;;;;;11.20;85.50;;;;;;5072618;28;19965;-89
2020/12/14 10:07:01;;;;;;;;;;;11.20;85.30;;;;;;5070988;28;20331;-88
2020/12/14 10:09:28;;;;;;;;;;;11.30;85.20;;;;;;5073853;28;19916;-89
2020/12/14 10:11:55;;;;;;;;;;;11.30;85.20;;;;;;5075738;28;19961;-89
2020/12/14 10:14:20;;;;;;;;;;;11.30;85.30;;;;;;5074499;28;20325;-90
2020/12/14 10:16:48;;;;;;;;;;;11.30;85.20;;;;;;5058701;28;19912;-89
2020/12/14 10:19:14;;;;;;;;;;;11.40;85.20;;;;;;5093018;28;19919;-93
2020/12/14 10:21:39;;;;;;;;;;;11.40;85.30;;;;;;5058991;28;19912;-92
2020/12/14 10:24:05;;;;;;;;;;;11.40;85.50;;;;;;5076099;28;19923;-93
2020/12/14 10:26:30;;;;;;;;;;;11.40;85.70;;;;;;5074387;28;20007;-89
2020/12/14 10:28:56;;;;;;;;;;;11.50;85.60;;;;;;5075841;28;20272;-90
2020/12/14 10:31:21;;;;;;;;;;;11.50;85.60;;;;;;5058471;28;19912;-90
2020/12/14 10:33:47;;;;;;;;;;;11.50;85.70;;;;;;5075213;28;19920;-89
2020/12/14 10:36:15;;;;;;;;;;;11.50;85.70;;;;;;5071433;28;19923;-89
2020/12/14 10:38:40;;;;;;;;;;;11.60;85.90;;;;;;5075345;28;20002;-91
2020/12/14 10:41:06;;;;;;;;;;;11.60;85.70;;;;;;5058866;28;19967;-90
2020/12/14 10:43:32;;;;;;;;;;;11.60;85.60;;;;;;5075254;28;19908;-90
2020/12/14 10:45:57;;;;;;;;;;;11.70;85.70;;;;;;5075538;28;19930;-89
2020/12/14 10:48:23;;;;;;;;;;;11.70;86.20;;;;;;5056102;28;19916;-88
2020/12/14 10:50:48;;;;;;;;;;;11.70;86.20;;;;;;5070737;28;20327;-90
2020/12/14 10:53:14;;;;;;;;;;;11.70;86.00;;;;;;5075034;28;19937;-91
2020/12/14 10:55:39;;;;;;;;;;;11.70;86.00;;;;;;5075288;28;19916;-91
2020/12/14 10:58:05;;;;;;;;;;;11.80;85.90;;;;;;5057604;28;19912;-91
2020/12/14 11:00:30;;;;;;;;;;;11.80;85.90;;;;;;5076404;28;20282;-91
2020/12/14 11:02:58;;;;;;;;;;;11.80;85.80;;;;;;5078814;28;19915;-91
2020/12/14 11:05:23;;;;;;;;;;;11.80;86.10;;;;;;5060528;28;19924;-90
2020/12/14 11:07:49;;;;;;;;;;;11.80;86.00;;;;;;5078596;28;19912;-92
2020/12/14 11:10:14;;;;;;;;;;;11.90;85.90;;;;;;5078289;28;19952;-90
2020/12/14 11:12:40;;;;;;;;;;;11.90;85.70;;;;;;5078382;28;19955;-91
2020/12/14 11:15:07;;;;;;;;;;;11.90;85.60;;;;;;5078262;28;19918;-91
2020/12/14 11:17:34;;;;;;;;;;;11.90;85.50;;;;;;5078236;28;20145;-91
2020/12/14 11:19:59;;;;;;;;;;;12.00;85.40;;;;;;5078226;28;19912;-92
2020/12/14 11:22:25;;;;;;;;;;;12.00;85.60;;;;;;5096402;28;20289;-92
2020/12/14 11:24:50;;;;;;;;;;;12.00;85.30;;;;;;5078605;28;19920;-90
2020/12/14 11:27:16;;;;;;;;;;;12.00;85.30;;;;;;5078072;28;19919;-90
2020/12/14 11:29:41;;;;;;;;;;;12.00;85.30;;;;;;5061497;28;19912;-89
2020/12/14 11:32:06;;;;;;;;;;;12.10;85.30;;;;;;5060964;28;19912;-89
2020/12/14 11:34:32;;;;;;;;;;;12.10;85.20;;;;;;5077259;28;19958;-90
2020/12/14 11:36:59;;;;;;;;;;;12.20;85.20;;;;;;5059733;28;19999;-90
2020/12/14 11:39:25;;;;;;;;;;;12.20;85.10;;;;;;5109135;28;20258;-92
2020/12/14 11:41:50;;;;;;;;;;;12.20;85.00;;;;;;5077201;28;20011;-91
2020/12/14 11:44:16;;;;;;;;;;;12.20;85.10;;;;;;5078033;28;19919;-92
2020/12/14 11:46:48;;;;;;;;;;;12.30;85.20;;;;;;5077251;28;19912;-92
2020/12/14 11:49:14;;;;;;;;;;;12.30;85.10;;;;;;5080651;28;20452;-91
2020/12/14 11:51:39;;;;;;;;;;;12.30;85.20;;;;;;5052952;28;20011;-91
2020/12/14 11:54:05;;;;;;;;;;;12.30;85.20;;;;;;5057155;28;19916;-91
2020/12/14 11:56:30;;;;;;;;;;;12.30;85.20;;;;;;5092255;28;19967;-91
2020/12/14 11:58:56;;;;;;;;;;;12.40;85.10;;;;;;5069565;28;19938;-94
2020/12/14 12:01:24;;;;;;;;;;;12.40;85.00;;;;;;5093535;28;20357;-91
2020/12/14 12:03:50;;;;;;;;;;;12.40;85.00;;;;;;5077010;28;20006;-91
2020/12/14 12:06:16;;;;;;;;;;;12.40;85.00;;;;;;5058715;28;19974;-91
2020/12/14 12:08:42;;;;;;;;;;;12.40;85.00;;;;;;5074742;28;20478;-92
2020/12/14 12:11:10;;;;;;;;;;;12.40;84.90;;;;;;5094344;28;19912;-91
2020/12/14 12:13:36;;;;;;;;;;;12.40;84.90;;;;;;5075370;28;19908;-91
2020/12/14 12:16:04;;;;;;;;;;;12.50;84.80;;;;;;5076758;28;19919;-92
2020/12/14 12:18:29;;;;;;;;;;;12.50;85.40;;;;;;5076495;28;19908;-91
2020/12/14 12:20:55;;;;;;;;;;;12.50;84.80;;;;;;5076461;28;19920;-91
2020/12/14 12:23:20;;;;;;;;;;;12.50;84.70;;;;;;5069637;28;20015;-92
2020/12/14 12:25:46;;;;;;;;;;;12.60;84.70;;;;;;5056115;22;19931;-85
2020/12/14 12:28:13;;;;;;;;;;;12.60;84.70;;;;;;5041745;28;19912;-85
2020/12/14 12:30:39;;;;;;;;;;;12.60;84.70;;;;;;5065161;28;19924;-85
2020/12/14 12:33:04;;;;;;;;;;;12.70;84.80;;;;;;5073373;28;19912;-85
2020/12/14 12:35:30;;;;;;;;;;;12.70;84.70;;;;;;5038434;28;19923;-85
2020/12/14 12:37:55;;;;;;;;;;;12.70;84.70;;;;;;5026635;28;20371;-85
2020/12/14 12:40:21;;;;;;;;;;;12.70;85.20;;;;;;5034895;28;19915;-85
2020/12/14 12:42:46;;;;;;;;;;;12.70;84.40;;;;;;5035667;28;19916;-84
2020/12/14 12:45:12;;;;;;;;;;;12.80;84.50;;;;;;5047797;28;19978;-84
2020/12/14 12:47:37;;;;;;;;;;;12.80;84.30;;;;;;5052617;28;19960;-84
2020/12/14 12:50:03;;;;;;;;;;;12.80;84.20;;;;;;5036366;28;20009;-85
2020/12/14 12:52:28;;;;;;;;;;;12.80;84.20;;;;;;5057005;28;20346;-84
2020/12/14 12:54:54;;;;;;;;;;;12.80;84.10;;;;;;5037927;28;20025;-85
2020/12/14 12:57:19;;;;;;;;;;;12.90;84.20;;;;;;5054792;28;19959;-85
2020/12/14 12:59:45;;;;;;;;;;;12.90;84.00;;;;;;5068502;28;19912;-85
2020/12/14 13:02:10;;;;;;;;;;;12.90;84.00;;;;;;5071482;28;19909;-85
2020/12/14 13:04:36;;;;;;;;;;;12.90;83.80;;;;;;5072436;28;20285;-85
2020/12/14 13:07:05;;;;;;;;;;;12.90;83.70;;;;;;5069842;28;20297;-86
2020/12/14 13:09:31;;;;;;;;;;;13.00;83.70;;;;;;5053989;28;19912;-85
2020/12/14 13:11:56;;;;;;;;;;;13.00;83.60;;;;;;5055070;28;19908;-86
2020/12/14 13:14:22;;;;;;;;;;;13.00;83.60;;;;;;5021189;28;20467;-83
2020/12/14 13:16:47;;;;;;;;;;;13.00;83.50;;;;;;5023051;28;20337;-86
2020/12/14 13:19:13;;;;;;;;;;;13.00;83.40;;;;;;5051345;28;19912;-86
2020/12/14 13:21:38;;;;;;;;;;;13.10;83.30;;;;;;5054802;28;19917;-86
2020/12/14 13:24:04;;;;;;;;;;;13.10;83.30;;;;;;5038140;28;20298;-86
2020/12/14 13:26:31;;;;;;;;;;;13.10;83.20;;;;;;5054368;28;19928;-87
2020/12/14 13:28:57;;;;;;;;;;;13.10;83.10;;;;;;5064035;28;19916;-87
2020/12/14 13:31:23;;;;;;;;;;;13.00;83.00;;;;;;5055832;28;19947;-87
2020/12/14 13:33:50;;;;;;;;;;;13.10;83.00;;;;;;5059517;28;19947;-86
2020/12/14 13:36:17;;;;;;;;;;;13.10;83.00;;;;;;5055111;28;19923;-86
2020/12/14 13:38:42;;;;;;;;;;;13.10;82.90;;;;;;5072767;28;19963;-86
2020/12/14 13:41:08;;;;;;;;;;;13.10;82.80;;;;;;5051434;28;19948;-86
2020/12/14 13:43:34;;;;;;;;;;;13.10;82.80;;;;;;5021864;28;19975;-87
2020/12/14 13:45:59;;;;;;;;;;;13.10;82.80;;;;;;5034935;28;20251;-86
2020/12/14 13:48:25;;;;;;;;;;;13.00;82.70;;;;;;5040128;28;20273;-86
2020/12/14 13:50:51;;;;;;;;;;;13.10;82.70;;;;;;5054703;28;19959;-86
2020/12/14 13:53:17;;;;;;;;;;;13.00;82.60;;;;;;5049890;28;20019;-87
2020/12/14 13:55:42;;;;;;;;;;;13.10;82.70;;;;;;5018806;28;20445;-85
2020/12/14 13:58:08;;;;;;;;;;;13.10;82.70;;;;;;5022172;28;19963;-86
2020/12/14 14:00:33;;;;;;;;;;;13.00;82.60;;;;;;5071001;28;20007;-85
2020/12/14 14:03:00;;;;;;;;;;;13.00;82.60;;;;;;5058085;28;19909;-85
2020/12/14 14:05:25;;;;;;;;;;;13.00;82.50;;;;;;5053877;28;20023;-86
2020/12/14 14:07:51;;;;;;;;;;;13.00;82.50;;;;;;5038543;28;20372;-86
2020/12/14 14:10:18;;;;;;;;;;;13.00;82.50;;;;;;5052424;28;19999;-87
2020/12/14 14:12:47;;;;;;;;;;;13.00;82.50;;;;;;5023358;28;19913;-85
2020/12/14 14:15:13;;;;;;;;;;;13.00;82.40;;;;;;5035872;28;19913;-85
2020/12/14 14:17:38;;;;;;;;;;;13.00;82.30;;;;;;5033650;28;19927;-85
2020/12/14 14:20:04;;;;;;;;;;;13.00;82.30;;;;;;5034166;28;19917;-84
2020/12/14 14:22:30;;;;;;;;;;;13.00;82.30;;;;;;5034016;28;19909;-85
2020/12/14 14:24:55;;;;;;;;;;;13.00;82.20;;;;;;5017443;28;19925;-84
2020/12/14 14:27:22;;;;;;;;;;;13.00;82.20;;;;;;5038038;28;19935;-85
2020/12/14 14:29:50;;;;;;;;;;;13.00;82.20;;;;;;5053995;28;19972;-85
2020/12/14 14:32:16;;;;;;;;;;;13.00;82.20;;;;;;5048468;28;20354;-83
2020/12/14 14:34:42;;;;;;;;;;;13.00;82.20;;;;;;5050156;28;19991;-84
2020/12/14 14:37:08;;;;;;;;;;;12.90;82.10;;;;;;5033836;28;19920;-84
2020/12/14 14:39:34;;;;;;;;;;;12.90;82.10;;;;;;5046694;28;20006;-84
2020/12/14 14:41:59;;;;;;;;;;;12.90;82.00;;;;;;5037439;28;20354;-84
2020/12/14 14:44:25;;;;;;;;;;;12.90;82.00;;;;;;5053835;28;19920;-85
2020/12/14 14:46:52;;;;;;;;;;;12.90;82.00;;;;;;5067228;28;19916;-84
2020/12/14 14:49:21;;;;;;;;;;;12.90;82.10;;;;;;5062512;28;19990;-85
2020/12/14 14:51:47;;;;;;;;;;;12.90;82.00;;;;;;5057292;28;20354;-83
2020/12/14 14:54:13;;;;;;;;;;;12.80;82.00;;;;;;5061342;28;20346;-86